Time;durP1;ratioP1;P1;durP2;ratioP2;P2;SDS_P1;SDS_P2;PMS_P1;PMS_P2;Temp;Humidity;BMP_temperature;BMP_pressure;BME280_temperature;BME280_humidity;BME280_pressure;Samples;Min_cycle;Max_cycle;Signal;HPM_P1;HPM_P2
2022/08/02 00:02:34;;;;;;;;;;;15.50;99.90;;;;;;5121031;27;19912;-56
2022/08/02 00:05:14;;;;;;;;;;;15.30;99.90;;;;;;5118820;27;19919;-56
2022/08/02 00:07:53;;;;;;;;;;;15.10;99.90;;;;;;5119696;27;19918;-57
2022/08/02 00:10:33;;;;;;;;;;;15.00;99.90;;;;;;5123245;27;20284;-57
2022/08/02 00:13:13;;;;;;;;;;;14.90;99.90;;;;;;5125791;27;19922;-57
2022/08/02 00:15:53;;;;;;;;;;;14.80;99.90;;;;;;5095871;27;19912;-57
2022/08/02 00:18:33;;;;;;;;;;;14.70;99.90;;;;;;5125793;27;20193;-56
2022/08/02 00:21:13;;;;;;;;;;;14.70;99.90;;;;;;5119439;27;19922;-56
2022/08/02 00:23:52;;;;;;;;;;;14.70;99.90;;;;;;5125544;27;20278;-56
2022/08/02 00:26:32;;;;;;;;;;;14.80;99.90;;;;;;5127531;27;20327;-57
2022/08/02 00:29:12;;;;;;;;;;;14.80;99.90;;;;;;5124959;27;19911;-57
2022/08/02 00:31:52;;;;;;;;;;;14.80;99.90;;;;;;5119519;27;19919;-57
2022/08/02 00:34:32;;;;;;;;;;;14.80;99.90;;;;;;5124853;27;19919;-57
2022/08/02 00:37:12;;;;;;;;;;;14.70;99.90;;;;;;5118718;27;19930;-58
2022/08/02 00:39:51;;;;;;;;;;;14.60;99.90;;;;;;5104541;27;20274;-56
2022/08/02 00:42:32;;;;;;;;;;;14.60;99.90;;;;;;5077030;27;19917;-56
2022/08/02 00:45:13;;;;;;;;;;;14.50;99.90;;;;;;5118910;27;19916;-57
2022/08/02 00:47:52;;;;;;;;;;;14.50;99.90;;;;;;5124891;27;19922;-57
2022/08/02 00:50:33;;;;;;;;;;;14.40;99.90;;;;;;5138230;27;20370;-59
2022/08/02 00:53:14;;;;;;;;;;;14.40;99.90;;;;;;5105225;27;19946;-56
2022/08/02 00:55:54;;;;;;;;;;;14.30;99.90;;;;;;5109208;27;19953;-57
2022/08/02 00:58:33;;;;;;;;;;;14.30;99.90;;;;;;5114523;27;20303;-56
2022/08/02 01:01:14;;;;;;;;;;;14.30;99.90;;;;;;5119579;27;20415;-56
2022/08/02 01:03:55;;;;;;;;;;;14.20;99.90;;;;;;5125501;27;19912;-57
2022/08/02 01:06:35;;;;;;;;;;;14.10;99.90;;;;;;5118564;27;19953;-57
2022/08/02 01:09:14;;;;;;;;;;;14.10;99.90;;;;;;5097090;27;19954;-57
2022/08/02 01:11:54;;;;;;;;;;;14.00;99.90;;;;;;5119515;27;19926;-56
2022/08/02 01:14:34;;;;;;;;;;;14.00;99.90;;;;;;5106578;27;20289;-57
2022/08/02 01:17:28;;;;;;;;;;;14.00;99.90;;;;;;5118541;27;19926;-58
2022/08/02 01:20:15;;;;;;;;;;;13.90;99.90;;;;;;5120952;27;20388;-57
2022/08/02 01:23:09;;;;;;;;;;;13.90;99.90;;;;;;5125835;27;19912;-57
2022/08/02 01:25:56;;;;;;;;;;;13.90;99.90;;;;;;5110343;27;19912;-57
2022/08/02 01:28:38;;;;;;;;;;;13.80;99.90;;;;;;5073182;28;19946;-57
2022/08/02 01:31:21;;;;;;;;;;;13.80;99.90;;;;;;5119098;27;19912;-57
2022/08/02 01:34:04;;;;;;;;;;;13.70;99.90;;;;;;5125259;27;19934;-57
2022/08/02 01:36:46;;;;;;;;;;;13.70;99.90;;;;;;5100422;27;19918;-56
2022/08/02 01:39:28;;;;;;;;;;;13.70;99.90;;;;;;5096866;27;20212;-57
2022/08/02 01:42:09;;;;;;;;;;;13.70;99.90;;;;;;5119113;27;19916;-56
2022/08/02 01:44:51;;;;;;;;;;;13.80;99.90;;;;;;5102020;27;20403;-57
2022/08/02 01:47:34;;;;;;;;;;;13.80;99.90;;;;;;5096764;27;19922;-58
2022/08/02 01:50:16;;;;;;;;;;;13.70;99.90;;;;;;5121450;27;19929;-56
2022/08/02 01:52:57;;;;;;;;;;;13.60;99.90;;;;;;5126251;27;19934;-57
2022/08/02 01:55:40;;;;;;;;;;;13.60;99.90;;;;;;5093781;27;19919;-56
2022/08/02 01:58:24;;;;;;;;;;;13.60;99.90;;;;;;5125286;27;19918;-57
2022/08/02 02:01:04;;;;;;;;;;;13.60;99.90;;;;;;5119783;27;19919;-56
2022/08/02 02:03:45;;;;;;;;;;;13.70;99.90;;;;;;5104730;27;19945;-56
2022/08/02 02:06:26;;;;;;;;;;;13.70;99.90;;;;;;5102815;27;19918;-57
2022/08/02 02:09:06;;;;;;;;;;;13.60;99.90;;;;;;5117597;27;19922;-57
2022/08/02 02:11:46;;;;;;;;;;;13.60;99.90;;;;;;5119741;27;19953;-56
2022/08/02 02:14:29;;;;;;;;;;;13.50;99.90;;;;;;5104703;27;19938;-57
2022/08/02 02:17:09;;;;;;;;;;;13.60;99.90;;;;;;5122446;27;19918;-57
2022/08/02 02:19:51;;;;;;;;;;;13.60;99.90;;;;;;5124534;27;19918;-56
2022/08/02 02:22:32;;;;;;;;;;;13.70;99.90;;;;;;5118256;27;19916;-57
2022/08/02 02:25:14;;;;;;;;;;;13.70;99.90;;;;;;5118490;27;19919;-57
2022/08/02 02:27:57;;;;;;;;;;;13.70;99.90;;;;;;5104337;27;19930;-57
2022/08/02 02:30:38;;;;;;;;;;;13.80;99.90;;;;;;5102433;27;20296;-56
2022/08/02 02:33:20;;;;;;;;;;;13.90;99.90;;;;;;5125609;27;19916;-57
2022/08/02 02:36:01;;;;;;;;;;;13.90;99.90;;;;;;5107554;27;19913;-56
2022/08/02 02:38:42;;;;;;;;;;;13.90;99.90;;;;;;5117724;27;19918;-57
2022/08/02 02:41:25;;;;;;;;;;;13.90;99.90;;;;;;5119230;27;19918;-57
2022/08/02 02:44:07;;;;;;;;;;;13.90;99.90;;;;;;5146073;27;19912;-57
2022/08/02 02:46:49;;;;;;;;;;;14.00;99.90;;;;;;5101018;27;19912;-57
2022/08/02 02:49:30;;;;;;;;;;;13.90;99.90;;;;;;5124872;27;19926;-56
2022/08/02 02:52:13;;;;;;;;;;;14.00;99.90;;;;;;5117115;27;19938;-56
2022/08/02 02:54:54;;;;;;;;;;;13.90;99.90;;;;;;5100884;27;19918;-56
2022/08/02 02:57:35;;;;;;;;;;;13.90;99.90;;;;;;5121459;27;19926;-56
2022/08/02 03:00:16;;;;;;;;;;;13.90;99.90;;;;;;5123672;27;19934;-57
2022/08/02 03:02:56;;;;;;;;;;;13.80;99.90;;;;;;5126202;27;19912;-58
2022/08/02 03:05:36;;;;;;;;;;;13.80;99.90;;;;;;5094247;27;19913;-56
2022/08/02 03:08:15;;;;;;;;;;;13.70;99.90;;;;;;5097065;27;19916;-56
2022/08/02 03:10:56;;;;;;;;;;;13.70;99.90;;;;;;5120868;27;19916;-57
2022/08/02 03:13:37;;;;;;;;;;;13.70;99.90;;;;;;5125343;27;19918;-57
2022/08/02 03:16:17;;;;;;;;;;;13.80;99.90;;;;;;5104115;27;19919;-57
2022/08/02 03:18:57;;;;;;;;;;;13.80;99.90;;;;;;5122858;27;19919;-57
2022/08/02 03:21:38;;;;;;;;;;;13.80;99.90;;;;;;5119138;27;20387;-57
2022/08/02 03:24:18;;;;;;;;;;;13.80;99.90;;;;;;5104541;27;19930;-56
2022/08/02 03:26:58;;;;;;;;;;;13.70;99.90;;;;;;5145032;22;19928;-55
2022/08/02 03:29:37;;;;;;;;;;;13.60;99.90;;;;;;5104503;27;19919;-55
2022/08/02 03:32:17;;;;;;;;;;;13.60;99.90;;;;;;5123224;27;19912;-55
2022/08/02 03:34:57;;;;;;;;;;;13.60;99.90;;;;;;5124274;27;19934;-54
2022/08/02 03:37:37;;;;;;;;;;;13.50;99.90;;;;;;5107871;27;19927;-55
2022/08/02 03:40:18;;;;;;;;;;;13.50;99.90;;;;;;5122880;27;19912;-55
2022/08/02 03:42:59;;;;;;;;;;;13.40;99.90;;;;;;5110369;27;20199;-54
2022/08/02 03:45:41;;;;;;;;;;;13.30;99.90;;;;;;5117790;27;19916;-54
2022/08/02 03:48:21;;;;;;;;;;;13.30;99.90;;;;;;5124337;27;19933;-54
2022/08/02 03:51:01;;;;;;;;;;;13.20;99.90;;;;;;5120832;27;19911;-56
2022/08/02 03:53:43;;;;;;;;;;;13.20;99.90;;;;;;5124786;27;19918;-55
2022/08/02 03:56:24;;;;;;;;;;;13.10;99.90;;;;;;5090130;27;19931;-55
2022/08/02 03:59:07;;;;;;;;;;;13.20;99.90;;;;;;5124295;27;19965;-55
2022/08/02 04:01:48;;;;;;;;;;;13.20;99.90;;;;;;5122551;27;19920;-55
2022/08/02 04:04:28;;;;;;;;;;;13.30;99.90;;;;;;5124617;27;19938;-54
2022/08/02 04:07:08;;;;;;;;;;;13.30;99.90;;;;;;5084475;27;19916;-55
2022/08/02 04:09:48;;;;;;;;;;;13.40;99.90;;;;;;5104062;27;19931;-54
2022/08/02 04:12:27;;;;;;;;;;;13.50;99.90;;;;;;5122752;27;19934;-55
2022/08/02 04:15:08;;;;;;;;;;;13.60;99.90;;;;;;5123749;27;19918;-55
2022/08/02 04:17:50;;;;;;;;;;;13.70;99.90;;;;;;5107359;27;19926;-56
2022/08/02 04:20:31;;;;;;;;;;;13.80;99.90;;;;;;5122128;27;19916;-55
2022/08/02 04:23:14;;;;;;;;;;;13.90;99.90;;;;;;5124520;27;19912;-54
2022/08/02 04:25:55;;;;;;;;;;;14.10;99.90;;;;;;5120751;27;19918;-55
2022/08/02 04:28:35;;;;;;;;;;;14.20;99.90;;;;;;5108109;27;19918;-55
2022/08/02 04:31:16;;;;;;;;;;;14.30;99.90;;;;;;5101765;27;20288;-54
2022/08/02 04:33:57;;;;;;;;;;;14.50;99.90;;;;;;5124756;27;19926;-56
2022/08/02 04:36:37;;;;;;;;;;;14.70;99.90;;;;;;5097693;27;20316;-56
2022/08/02 04:39:17;;;;;;;;;;;14.80;99.90;;;;;;5121094;27;19961;-56
2022/08/02 04:41:57;;;;;;;;;;;14.90;99.90;;;;;;5119535;27;19915;-57
2022/08/02 04:44:36;;;;;;;;;;;15.10;99.90;;;;;;5105557;27;19916;-55
2022/08/02 04:47:17;;;;;;;;;;;15.20;99.90;;;;;;5117443;27;19915;-56
2022/08/02 04:49:58;;;;;;;;;;;15.30;99.90;;;;;;5102708;27;19912;-55
2022/08/02 04:52:38;;;;;;;;;;;15.30;99.90;;;;;;5110535;27;19918;-56
2022/08/02 04:55:17;;;;;;;;;;;15.50;99.90;;;;;;5120821;27;19926;-55
2022/08/02 04:57:58;;;;;;;;;;;16.00;99.90;;;;;;5094696;27;19917;-55
2022/08/02 05:00:41;;;;;;;;;;;17.00;99.90;;;;;;5121143;27;19930;-55
2022/08/02 05:03:21;;;;;;;;;;;18.00;99.90;;;;;;5102733;27;19919;-56
2022/08/02 05:06:02;;;;;;;;;;;18.90;99.90;;;;;;5120107;27;19912;-56
2022/08/02 05:08:41;;;;;;;;;;;19.60;99.90;;;;;;5122247;27;19912;-55
2022/08/02 05:11:21;;;;;;;;;;;20.00;99.90;;;;;;5120509;27;19918;-55
2022/08/02 05:14:01;;;;;;;;;;;20.40;99.90;;;;;;5124940;27;19923;-55
2022/08/02 05:16:41;;;;;;;;;;;20.60;99.90;;;;;;5121046;27;20328;-55
2022/08/02 05:19:21;;;;;;;;;;;20.90;99.90;;;;;;5124441;27;19918;-55
2022/08/02 05:22:01;;;;;;;;;;;20.90;99.90;;;;;;5122812;27;19912;-55
2022/08/02 05:24:40;;;;;;;;;;;21.00;99.90;;;;;;5105535;27;19912;-55
2022/08/02 05:27:20;;;;;;;;;;;20.90;99.90;;;;;;5097860;27;19912;-55
2022/08/02 05:30:00;;;;;;;;;;;20.40;99.90;;;;;;5104822;27;19942;-56
2022/08/02 05:32:47;;;;;;;;;;;19.80;99.90;;;;;;5110148;27;20385;-55
2022/08/02 05:35:28;;;;;;;;;;;19.50;99.90;;;;;;5101642;27;19935;-55
2022/08/02 05:38:07;;;;;;;;;;;19.40;99.90;;;;;;5122254;27;19922;-55
2022/08/02 05:40:47;;;;;;;;;;;19.40;99.90;;;;;;5099990;27;20501;-55
2022/08/02 05:43:27;;;;;;;;;;;19.40;99.90;;;;;;5104418;27;19924;-55
2022/08/02 05:46:07;;;;;;;;;;;19.60;99.90;;;;;;5119606;27;19926;-56
2022/08/02 05:48:47;;;;;;;;;;;19.70;99.90;;;;;;5122788;27;20307;-55
2022/08/02 05:51:29;;;;;;;;;;;19.80;99.90;;;;;;5087263;27;19923;-55
2022/08/02 05:54:15;;;;;;;;;;;19.90;99.90;;;;;;5101298;27;19926;-55
2022/08/02 05:56:59;;;;;;;;;;;20.10;99.90;;;;;;5119069;27;19911;-55
2022/08/02 05:59:44;;;;;;;;;;;20.10;99.90;;;;;;5105200;27;19922;-55
2022/08/02 06:02:28;;;;;;;;;;;20.30;99.90;;;;;;5098483;27;19969;-55
2022/08/02 06:05:11;;;;;;;;;;;20.40;99.90;;;;;;5123008;27;19935;-55
2022/08/02 06:07:54;;;;;;;;;;;20.60;99.90;;;;;;5122344;27;19922;-55
2022/08/02 06:10:36;;;;;;;;;;;20.60;99.90;;;;;;5124284;27;20383;-55
2022/08/02 06:13:16;;;;;;;;;;;20.70;99.90;;;;;;5123541;27;19918;-56
2022/08/02 06:15:58;;;;;;;;;;;20.80;99.90;;;;;;5115884;27;19918;-55
2022/08/02 06:18:40;;;;;;;;;;;21.10;99.90;;;;;;5124515;27;19912;-55
2022/08/02 06:21:20;;;;;;;;;;;21.30;99.90;;;;;;5103822;27;19926;-55
2022/08/02 06:24:02;;;;;;;;;;;21.50;99.90;;;;;;5104241;27;19926;-55
2022/08/02 06:26:43;;;;;;;;;;;21.70;99.90;;;;;;5110422;27;19912;-55
2022/08/02 06:29:24;;;;;;;;;;;21.80;99.90;;;;;;5124112;27;19912;-56
2022/08/02 06:32:05;;;;;;;;;;;22.00;99.90;;;;;;5124769;27;19922;-55
2022/08/02 06:34:46;;;;;;;;;;;22.00;99.90;;;;;;5124702;27;19918;-56
2022/08/02 06:37:27;;;;;;;;;;;22.10;99.90;;;;;;5102665;27;20298;-55
2022/08/02 06:40:11;;;;;;;;;;;22.20;99.90;;;;;;5124363;27;19912;-56
2022/08/02 06:43:09;;;;;;;;;;;22.40;99.90;;;;;;5123352;27;19915;-56
2022/08/02 06:45:49;;;;;;;;;;;22.50;99.90;;;;;;5097390;27;19927;-56
2022/08/02 06:48:29;;;;;;;;;;;22.50;99.90;;;;;;5072443;28;19916;-55
2022/08/02 06:51:09;;;;;;;;;;;22.60;99.90;;;;;;5123979;27;19926;-55
2022/08/02 06:53:49;;;;;;;;;;;22.60;99.90;;;;;;5119259;27;20151;-56
2022/08/02 06:56:29;;;;;;;;;;;22.60;99.90;;;;;;5093912;27;19912;-56
2022/08/02 06:59:08;;;;;;;;;;;22.80;99.90;;;;;;5124969;27;19911;-56
2022/08/02 07:01:48;;;;;;;;;;;23.00;99.90;;;;;;5121409;27;19922;-55
2022/08/02 07:04:29;;;;;;;;;;;23.10;99.90;;;;;;5124279;27;19918;-55
2022/08/02 07:07:10;;;;;;;;;;;23.20;99.90;;;;;;5086622;27;19912;-56
2022/08/02 07:09:50;;;;;;;;;;;23.20;99.90;;;;;;5105023;27;19912;-56
2022/08/02 07:12:32;;;;;;;;;;;23.30;99.90;;;;;;5125071;27;19930;-56
2022/08/02 07:15:12;;;;;;;;;;;23.40;99.90;;;;;;5124489;27;19912;-56
2022/08/02 07:17:52;;;;;;;;;;;23.60;99.90;;;;;;5122176;27;19926;-56
2022/08/02 07:20:32;;;;;;;;;;;23.60;99.90;;;;;;5123806;27;19916;-56
2022/08/02 07:23:12;;;;;;;;;;;23.70;99.90;;;;;;5110838;27;20312;-56
2022/08/02 07:25:52;;;;;;;;;;;24.00;99.90;;;;;;5117118;27;19916;-57
2022/08/02 07:28:31;;;;;;;;;;;24.10;99.90;;;;;;5124032;27;19916;-56
2022/08/02 07:31:11;;;;;;;;;;;24.30;99.90;;;;;;5122955;27;19916;-55
2022/08/02 07:33:51;;;;;;;;;;;24.50;99.90;;;;;;5124735;27;19919;-55
2022/08/02 07:36:31;;;;;;;;;;;24.60;99.90;;;;;;5111507;27;19924;-56
2022/08/02 07:39:11;;;;;;;;;;;24.80;99.90;;;;;;5125152;27;20285;-55
2022/08/02 07:41:51;;;;;;;;;;;25.10;99.90;;;;;;5125737;27;19912;-56
2022/08/02 07:44:33;;;;;;;;;;;25.10;99.90;;;;;;5125754;27;19912;-55
2022/08/02 07:47:13;;;;;;;;;;;25.20;99.90;;;;;;5086470;27;19913;-55
2022/08/02 07:49:53;;;;;;;;;;;25.30;99.90;;;;;;5125750;27;19911;-56
2022/08/02 07:52:33;;;;;;;;;;;25.40;99.90;;;;;;5105724;27;19962;-55
2022/08/02 07:55:14;;;;;;;;;;;25.40;99.90;;;;;;5104527;27;20304;-56
2022/08/02 07:57:54;;;;;;;;;;;25.50;99.90;;;;;;5124940;27;19918;-56
2022/08/02 08:00:34;;;;;;;;;;;25.30;99.90;;;;;;5125731;27;19939;-57
2022/08/02 08:03:14;;;;;;;;;;;25.30;99.90;;;;;;5125587;27;20199;-55
2022/08/02 08:05:54;;;;;;;;;;;25.20;99.90;;;;;;5101823;27;20419;-55
2022/08/02 08:08:35;;;;;;;;;;;25.20;99.90;;;;;;5124175;27;20391;-56
2022/08/02 08:11:15;;;;;;;;;;;25.30;99.90;;;;;;5104432;27;19912;-56
2022/08/02 08:13:55;;;;;;;;;;;25.40;99.90;;;;;;5123291;27;19918;-55
2022/08/02 08:16:35;;;;;;;;;;;25.50;99.90;;;;;;5123744;27;19974;-56
2022/08/02 08:19:15;;;;;;;;;;;25.60;99.90;;;;;;5099731;27;19916;-57
2022/08/02 08:21:54;;;;;;;;;;;25.70;99.90;;;;;;5104668;27;19953;-56
2022/08/02 08:24:38;;;;;;;;;;;25.80;99.90;;;;;;5123456;27;19918;-56
2022/08/02 08:27:18;;;;;;;;;;;25.60;99.90;;;;;;5105116;27;19912;-56
2022/08/02 08:29:59;;;;;;;;;;;25.50;99.90;;;;;;5104410;27;20347;-56
2022/08/02 08:32:39;;;;;;;;;;;25.50;99.90;;;;;;5123110;27;20377;-56
2022/08/02 08:35:18;;;;;;;;;;;25.50;99.90;;;;;;5159585;27;19915;-56
2022/08/02 08:37:58;;;;;;;;;;;25.40;99.90;;;;;;5121226;27;19916;-57
2022/08/02 08:40:40;;;;;;;;;;;25.40;99.90;;;;;;5109744;27;19918;-55
2022/08/02 08:43:21;;;;;;;;;;;25.50;99.90;;;;;;5122993;27;20115;-55
2022/08/02 08:46:01;;;;;;;;;;;25.60;99.90;;;;;;5116073;27;19920;-56
2022/08/02 08:48:46;;;;;;;;;;;25.60;99.90;;;;;;5103173;27;19919;-56
2022/08/02 08:51:27;;;;;;;;;;;25.70;99.90;;;;;;5124512;27;19918;-55
2022/08/02 08:54:10;;;;;;;;;;;25.70;99.90;;;;;;5107059;27;19912;-56
2022/08/02 08:56:51;;;;;;;;;;;25.80;99.90;;;;;;5123783;27;19912;-56
2022/08/02 08:59:31;;;;;;;;;;;26.00;99.90;;;;;;5124970;27;20284;-56
2022/08/02 09:02:11;;;;;;;;;;;26.00;99.90;;;;;;5123143;27;19920;-56
2022/08/02 09:04:51;;;;;;;;;;;25.80;99.90;;;;;;5104075;27;19912;-56
2022/08/02 09:07:31;;;;;;;;;;;25.70;99.90;;;;;;5103586;27;20277;-55
2022/08/02 09:10:28;;;;;;;;;;;25.70;99.90;;;;;;5105449;27;19926;-56
2022/08/02 09:13:09;;;;;;;;;;;25.80;99.90;;;;;;5105201;27;19946;-56
2022/08/02 09:15:55;;;;;;;;;;;25.90;99.90;;;;;;5097858;27;20423;-55
2022/08/02 09:18:38;;;;;;;;;;;26.10;99.40;;;;;;5124534;27;19912;-56
2022/08/02 09:21:19;;;;;;;;;;;26.20;95.50;;;;;;5124829;27;20129;-56
2022/08/02 09:23:59;;;;;;;;;;;26.20;95.80;;;;;;5122608;27;19935;-56
2022/08/02 09:26:38;;;;;;;;;;;26.30;94.50;;;;;;5132104;27;19968;-56
2022/08/02 09:29:21;;;;;;;;;;;26.40;90.80;;;;;;5125298;27;20403;-55
2022/08/02 09:32:03;;;;;;;;;;;26.40;84.50;;;;;;5125916;27;20258;-55
2022/08/02 09:34:45;;;;;;;;;;;26.50;83.50;;;;;;5105637;27;19912;-56
2022/08/02 09:37:27;;;;;;;;;;;26.70;82.10;;;;;;5125039;27;19916;-55
2022/08/02 09:40:09;;;;;;;;;;;27.00;75.70;;;;;;5125575;27;20369;-56
2022/08/02 09:42:59;;;;;;;;;;;27.20;69.20;;;;;;5126026;27;20287;-56
2022/08/02 09:45:40;;;;;;;;;;;27.40;70.50;;;;;;5121172;27;19946;-56
2022/08/02 09:48:19;;;;;;;;;;;27.50;63.40;;;;;;5125292;27;19912;-56
2022/08/02 09:50:59;;;;;;;;;;;27.60;65.80;;;;;;5126026;27;19912;-55
2022/08/02 09:53:39;;;;;;;;;;;28.00;62.00;;;;;;5125997;27;20296;-55
2022/08/02 09:56:20;;;;;;;;;;;28.10;59.10;;;;;;5114460;27;20396;-56
2022/08/02 09:59:06;;;;;;;;;;;28.30;58.40;;;;;;5122834;27;19918;-56
2022/08/02 10:01:48;;;;;;;;;;;28.50;58.60;;;;;;5104580;27;20194;-56
2022/08/02 10:04:29;;;;;;;;;;;28.50;56.40;;;;;;5090337;27;20278;-56
2022/08/02 10:07:10;;;;;;;;;;;28.90;52.90;;;;;;5144172;27;19915;-57
2022/08/02 10:09:51;;;;;;;;;;;29.20;52.20;;;;;;5104779;27;19913;-57
2022/08/02 10:12:32;;;;;;;;;;;29.60;52.50;;;;;;5146641;27;19911;-56
2022/08/02 10:15:12;;;;;;;;;;;30.00;50.90;;;;;;5123959;27;19916;-56
2022/08/02 10:17:52;;;;;;;;;;;30.60;49.90;;;;;;5123886;27;20276;-56
2022/08/02 10:20:36;;;;;;;;;;;30.90;46.60;;;;;;5124598;27;20419;-56
2022/08/02 10:23:17;;;;;;;;;;;30.80;47.50;;;;;;5108690;27;19957;-57
2022/08/02 10:25:58;;;;;;;;;;;31.00;49.40;;;;;;5115863;27;20304;-57
2022/08/02 10:28:38;;;;;;;;;;;31.20;47.90;;;;;;5125360;27;20385;-56
2022/08/02 10:31:23;;;;;;;;;;;31.10;46.80;;;;;;5125873;27;19920;-56
2022/08/02 10:34:07;;;;;;;;;;;30.70;47.10;;;;;;5125731;27;19912;-57
2022/08/02 10:36:47;;;;;;;;;;;30.60;48.00;;;;;;5124649;27;20266;-56
2022/08/02 10:39:28;;;;;;;;;;;30.60;47.30;;;;;;5104422;27;19926;-57
2022/08/02 10:42:08;;;;;;;;;;;30.40;47.00;;;;;;5122296;27;19918;-56
2022/08/02 10:44:48;;;;;;;;;;;29.70;44.50;;;;;;5103743;27;19920;-57
2022/08/02 10:47:30;;;;;;;;;;;28.90;47.20;;;;;;5102382;27;19920;-57
2022/08/02 10:50:11;;;;;;;;;;;28.60;47.90;;;;;;5122575;27;20327;-55
2022/08/02 10:53:10;;;;;;;;;;;28.80;48.50;;;;;;5124870;27;19918;-56
2022/08/02 10:55:51;;;;;;;;;;;29.00;46.60;;;;;;5097055;27;19926;-56
2022/08/02 10:58:33;;;;;;;;;;;29.10;44.40;;;;;;5128857;27;19912;-56
2022/08/02 11:01:28;;;;;;;;;;;29.30;45.10;;;;;;5104992;27;19926;-56
2022/08/02 11:04:08;;;;;;;;;;;29.50;45.70;;;;;;5105166;27;19954;-57
2022/08/02 11:07:07;;;;;;;;;;;29.90;47.00;;;;;;5090891;27;19930;-56
2022/08/02 11:09:48;;;;;;;;;;;30.30;45.50;;;;;;5105230;27;20351;-56
2022/08/02 11:12:28;;;;;;;;;;;30.80;41.50;;;;;;5125545;27;19918;-56
2022/08/02 11:15:09;;;;;;;;;;;31.10;41.60;;;;;;5125626;27;19918;-56
2022/08/02 11:17:53;;;;;;;;;;;31.30;40.40;;;;;;5124667;27;19922;-57
2022/08/02 11:20:33;;;;;;;;;;;31.70;39.50;;;;;;5146689;27;19970;-56
2022/08/02 11:23:26;;;;;;;;;;;32.00;40.80;;;;;;5117638;27;19913;-56
2022/08/02 11:26:20;;;;;;;;;;;32.20;38.50;;;;;;5095994;27;19919;-56
2022/08/02 11:29:02;;;;;;;;;;;32.20;39.00;;;;;;5120579;27;19912;-57
2022/08/02 11:31:43;;;;;;;;;;;32.50;40.40;;;;;;5123200;27;19934;-56
2022/08/02 11:34:25;;;;;;;;;;;32.20;40.40;;;;;;5125412;27;20180;-56
2022/08/02 11:37:06;;;;;;;;;;;31.60;40.50;;;;;;5108104;27;20315;-55
2022/08/02 11:39:51;;;;;;;;;;;31.00;42.70;;;;;;5146292;27;19912;-56
2022/08/02 11:42:35;;;;;;;;;;;30.60;41.90;;;;;;5125148;27;19942;-55
2022/08/02 11:45:18;;;;;;;;;;;30.30;41.90;;;;;;5083039;28;19912;-56
2022/08/02 11:47:57;;;;;;;;;;;29.90;45.40;;;;;;5104327;27;20312;-56
2022/08/02 11:50:37;;;;;;;;;;;29.60;44.90;;;;;;5102073;27;20397;-56
2022/08/02 11:53:17;;;;;;;;;;;29.50;43.90;;;;;;5125758;27;19912;-56
2022/08/02 11:55:58;;;;;;;;;;;29.90;42.30;;;;;;5116503;27;19912;-56
2022/08/02 11:58:38;;;;;;;;;;;30.30;41.50;;;;;;5125066;27;19941;-55
2022/08/02 12:01:18;;;;;;;;;;;30.70;42.10;;;;;;5125506;27;20266;-56
2022/08/02 12:03:59;;;;;;;;;;;31.20;43.50;;;;;;5125931;27;19912;-57
2022/08/02 12:06:39;;;;;;;;;;;31.60;41.00;;;;;;5111993;27;19946;-57
2022/08/02 12:09:19;;;;;;;;;;;31.80;41.20;;;;;;5125226;27;19946;-56
2022/08/02 12:11:59;;;;;;;;;;;32.20;38.30;;;;;;5105398;27;19912;-56
2022/08/02 12:14:43;;;;;;;;;;;32.30;40.00;;;;;;5105072;27;19918;-56
2022/08/02 12:20:34;;;;;;;;;;;32.40;36.00;;;;;;5125453;27;20245;-56
2022/08/02 12:23:15;;;;;;;;;;;32.70;36.80;;;;;;5125298;27;19912;-55
2022/08/02 12:26:02;;;;;;;;;;;33.00;37.30;;;;;;5118429;27;19918;-56
2022/08/02 12:28:43;;;;;;;;;;;32.70;37.70;;;;;;5125045;27;19920;-56
2022/08/02 12:31:38;;;;;;;;;;;32.30;37.70;;;;;;5105105;27;19918;-56
2022/08/02 12:34:20;;;;;;;;;;;32.40;39.40;;;;;;5104874;27;19912;-57
2022/08/02 12:37:04;;;;;;;;;;;32.80;38.90;;;;;;5088651;27;19913;-56
2022/08/02 12:39:48;;;;;;;;;;;32.70;36.70;;;;;;5125934;27;19949;-57
2022/08/02 12:42:45;;;;;;;;;;;32.50;36.80;;;;;;5105181;27;19926;-56
2022/08/02 12:45:26;;;;;;;;;;;32.00;36.70;;;;;;5122642;27;20311;-56
2022/08/02 12:48:06;;;;;;;;;;;31.60;37.40;;;;;;5125342;27;19926;-56
2022/08/02 12:50:46;;;;;;;;;;;31.10;37.70;;;;;;5126013;27;19938;-56
2022/08/02 12:53:33;;;;;;;;;;;30.80;38.40;;;;;;5126210;27;19912;-55
2022/08/02 12:56:12;;;;;;;;;;;30.60;41.40;;;;;;5106598;27;19930;-56
2022/08/02 12:58:52;;;;;;;;;;;30.70;39.00;;;;;;5086200;27;19969;-55
2022/08/02 13:01:32;;;;;;;;;;;30.90;40.40;;;;;;5121789;27;20343;-55
2022/08/02 13:04:12;;;;;;;;;;;30.90;39.70;;;;;;5125285;27;20411;-56
2022/08/02 13:06:52;;;;;;;;;;;31.20;39.60;;;;;;5123878;27;19922;-57
2022/08/02 13:09:37;;;;;;;;;;;31.70;41.70;;;;;;5105465;27;19913;-55
2022/08/02 13:12:18;;;;;;;;;;;32.30;38.30;;;;;;5125700;27;20544;-55
2022/08/02 13:14:57;;;;;;;;;;;32.50;38.30;;;;;;5105292;27;19926;-56
2022/08/02 13:17:37;;;;;;;;;;;32.50;36.70;;;;;;5104426;27;19953;-56
2022/08/02 13:20:17;;;;;;;;;;;32.20;39.10;;;;;;5125581;27;19918;-55
2022/08/02 13:22:58;;;;;;;;;;;32.30;38.70;;;;;;5105065;27;20454;-56
2022/08/02 13:25:41;;;;;;;;;;;32.60;36.70;;;;;;5124915;27;19918;-55
2022/08/02 13:28:22;;;;;;;;;;;32.60;36.80;;;;;;5124715;27;19911;-55
2022/08/02 13:31:01;;;;;;;;;;;32.60;39.00;;;;;;5125965;27;19926;-56
2022/08/02 13:33:41;;;;;;;;;;;32.60;38.00;;;;;;5125841;27;19912;-56
2022/08/02 13:36:21;;;;;;;;;;;32.50;38.00;;;;;;5114601;27;19918;-56
2022/08/02 13:39:02;;;;;;;;;;;32.40;37.00;;;;;;5105112;27;19926;-56
2022/08/02 13:41:42;;;;;;;;;;;32.50;36.60;;;;;;5125837;27;19953;-56
2022/08/02 13:44:22;;;;;;;;;;;33.00;37.50;;;;;;5125270;27;19912;-55
2022/08/02 13:47:02;;;;;;;;;;;33.10;35.00;;;;;;5108311;27;20468;-55
2022/08/02 13:49:42;;;;;;;;;;;32.80;34.50;;;;;;5125791;27;19912;-56
2022/08/02 13:52:21;;;;;;;;;;;32.60;35.50;;;;;;5125538;27;19916;-56
2022/08/02 13:55:01;;;;;;;;;;;32.50;35.60;;;;;;5125740;27;19918;-56
2022/08/02 13:57:41;;;;;;;;;;;32.60;35.20;;;;;;5103533;27;19918;-56
2022/08/02 14:00:21;;;;;;;;;;;33.10;34.60;;;;;;5125424;27;19934;-56
2022/08/02 14:03:01;;;;;;;;;;;33.10;35.00;;;;;;5125536;27;20280;-55
2022/08/02 14:05:41;;;;;;;;;;;33.20;34.60;;;;;;5120703;27;19926;-56
2022/08/02 14:08:22;;;;;;;;;;;33.00;34.30;;;;;;5125131;27;19918;-57
2022/08/02 14:11:02;;;;;;;;;;;32.60;35.30;;;;;;5125804;27;19912;-56
2022/08/02 14:13:42;;;;;;;;;;;32.20;35.80;;;;;;5125842;27;19912;-56
2022/08/02 14:16:22;;;;;;;;;;;31.80;35.80;;;;;;5113961;27;19927;-55
2022/08/02 14:19:01;;;;;;;;;;;31.50;36.80;;;;;;5125839;27;19916;-55
2022/08/02 14:21:41;;;;;;;;;;;31.30;37.50;;;;;;5125941;27;19918;-55
2022/08/02 14:24:22;;;;;;;;;;;30.90;37.70;;;;;;5125518;27;19934;-56
2022/08/02 14:27:02;;;;;;;;;;;30.90;37.70;;;;;;5108191;27;19916;-55
2022/08/02 14:29:42;;;;;;;;;;;30.90;37.20;;;;;;5125771;27;19915;-55
2022/08/02 14:32:22;;;;;;;;;;;30.70;39.20;;;;;;5125689;27;19918;-56
2022/08/02 14:35:02;;;;;;;;;;;30.60;39.30;;;;;;5125278;27;20340;-54
2022/08/02 14:37:42;;;;;;;;;;;30.90;37.40;;;;;;5125226;27;19918;-55
2022/08/02 14:40:22;;;;;;;;;;;31.00;37.20;;;;;;5125250;27;19953;-54
2022/08/02 14:43:03;;;;;;;;;;;30.90;37.60;;;;;;5125823;27;20408;-53
2022/08/02 14:45:43;;;;;;;;;;;30.90;38.70;;;;;;5117934;27;19912;-54
2022/08/02 14:48:23;;;;;;;;;;;31.00;37.70;;;;;;5123676;27;19912;-56
2022/08/02 14:51:02;;;;;;;;;;;31.20;37.90;;;;;;5123994;27;19916;-54
2022/08/02 14:53:42;;;;;;;;;;;31.10;40.50;;;;;;5104540;27;19919;-53
2022/08/02 14:56:22;;;;;;;;;;;31.30;37.00;;;;;;5112857;27;19938;-57
2022/08/02 14:59:02;;;;;;;;;;;31.70;36.00;;;;;;5104722;27;19912;-55
2022/08/02 15:01:42;;;;;;;;;;;32.50;35.40;;;;;;5125674;27;19918;-55
2022/08/02 15:04:22;;;;;;;;;;;32.80;34.70;;;;;;5125496;27;19922;-56
2022/08/02 15:07:01;;;;;;;;;;;32.70;34.20;;;;;;5108916;27;19928;-56
2022/08/02 15:09:41;;;;;;;;;;;32.40;34.90;;;;;;5125085;27;19912;-54
2022/08/02 15:12:21;;;;;;;;;;;32.10;35.10;;;;;;5125246;27;20373;-56
2022/08/02 15:15:01;;;;;;;;;;;32.20;39.50;;;;;;5125185;27;19915;-55
2022/08/02 15:17:41;;;;;;;;;;;32.20;37.20;;;;;;5124391;27;19918;-54
2022/08/02 15:20:21;;;;;;;;;;;32.10;36.70;;;;;;5125141;27;19916;-54
2022/08/02 15:23:02;;;;;;;;;;;31.80;39.10;;;;;;5105129;27;19919;-54
2022/08/02 15:25:42;;;;;;;;;;;31.70;39.00;;;;;;5136911;22;19918;-56
2022/08/02 15:28:22;;;;;;;;;;;31.60;38.60;;;;;;5124704;27;19912;-58
2022/08/02 15:31:02;;;;;;;;;;;31.50;39.10;;;;;;5104283;27;20501;-55
2022/08/02 15:33:43;;;;;;;;;;;31.40;40.40;;;;;;5084174;28;19960;-55
2022/08/02 15:36:23;;;;;;;;;;;31.60;39.20;;;;;;5096386;27;19916;-56
2022/08/02 15:39:03;;;;;;;;;;;32.10;38.80;;;;;;5124413;27;19912;-56
2022/08/02 15:41:43;;;;;;;;;;;32.30;37.80;;;;;;5124741;27;19912;-56